sensor_id;sensor_type;location;lat;lon;timestamp;P1;durP1;ratioP1;P2;durP2;ratioP2
42760;SDS011;31672;47.638;19.026;2023-09-19T00:03:32;4.63;;;2.70;;
42760;SDS011;31672;47.638;19.026;2023-09-19T00:08:36;6.88;;;2.80;;
42760;SDS011;31672;47.638;19.026;2023-09-19T00:13:40;5.82;;;2.75;;
42760;SDS011;31672;47.638;19.026;2023-09-19T00:18:44;6.78;;;2.97;;
42760;SDS011;31672;47.638;19.026;2023-09-19T00:23:49;3.88;;;2.95;;
42760;SDS011;31672;47.638;19.026;2023-09-19T00:28:54;6.63;;;2.70;;
42760;SDS011;31672;47.638;19.026;2023-09-19T00:34:00;3.03;;;2.38;;
42760;SDS011;31672;47.638;19.026;2023-09-19T00:39:06;3.80;;;2.67;;
42760;SDS011;31672;47.638;19.026;2023-09-19T00:44:11;4.78;;;2.72;;
42760;SDS011;31672;47.638;19.026;2023-09-19T00:49:14;5.70;;;2.90;;
42760;SDS011;31672;47.638;19.026;2023-09-19T00:54:19;4.72;;;2.80;;
42760;SDS011;31672;47.638;19.026;2023-09-19T00:59:25;6.40;;;2.95;;
42760;SDS011;31672;47.638;19.026;2023-09-19T01:04:29;4.53;;;3.03;;
42760;SDS011;31672;47.638;19.026;2023-09-19T01:09:34;5.72;;;3.05;;
42760;SDS011;31672;47.638;19.026;2023-09-19T01:14:42;5.22;;;3.22;;
42760;SDS011;31672;47.638;19.026;2023-09-19T01:25:19;7.35;;;3.78;;
42760;SDS011;31672;47.638;19.026;2023-09-19T01:30:49;6.35;;;3.65;;
42760;SDS011;31672;47.638;19.026;2023-09-19T01:36:01;5.88;;;3.20;;
42760;SDS011;31672;47.638;19.026;2023-09-19T01:41:07;6.15;;;3.70;;
42760;SDS011;31672;47.638;19.026;2023-09-19T01:46:26;3.95;;;2.85;;
42760;SDS011;31672;47.638;19.026;2023-09-19T01:57:14;4.03;;;2.85;;
42760;SDS011;31672;47.638;19.026;2023-09-19T02:02:42;5.00;;;2.67;;
42760;SDS011;31672;47.638;19.026;2023-09-19T02:07:50;4.60;;;2.63;;
42760;SDS011;31672;47.638;19.026;2023-09-19T02:12:56;4.00;;;2.80;;
42760;SDS011;31672;47.638;19.026;2023-09-19T02:18:02;4.95;;;2.75;;
42760;SDS011;31672;47.638;19.026;2023-09-19T02:23:06;3.80;;;2.45;;
42760;SDS011;31672;47.638;19.026;2023-09-19T02:28:10;8.43;;;3.42;;
42760;SDS011;31672;47.638;19.026;2023-09-19T02:33:14;5.05;;;3.03;;
42760;SDS011;31672;47.638;19.026;2023-09-19T02:38:20;4.72;;;3.45;;
42760;SDS011;31672;47.638;19.026;2023-09-19T02:43:27;5.57;;;3.90;;
42760;SDS011;31672;47.638;19.026;2023-09-19T02:48:31;5.50;;;3.13;;
42760;SDS011;31672;47.638;19.026;2023-09-19T02:53:37;4.72;;;2.90;;
42760;SDS011;31672;47.638;19.026;2023-09-19T02:58:41;5.00;;;3.28;;
42760;SDS011;31672;47.638;19.026;2023-09-19T03:03:45;6.10;;;3.83;;
42760;SDS011;31672;47.638;19.026;2023-09-19T03:08:49;7.22;;;4.07;;
42760;SDS011;31672;47.638;19.026;2023-09-19T03:13:54;7.35;;;3.92;;
42760;SDS011;31672;47.638;19.026;2023-09-19T03:18:59;5.15;;;3.83;;
42760;SDS011;31672;47.638;19.026;2023-09-19T03:24:03;5.28;;;3.88;;
42760;SDS011;31672;47.638;19.026;2023-09-19T03:29:07;5.68;;;3.83;;
42760;SDS011;31672;47.638;19.026;2023-09-19T03:34:13;6.40;;;4.00;;
42760;SDS011;31672;47.638;19.026;2023-09-19T03:39:17;6.38;;;3.38;;
42760;SDS011;31672;47.638;19.026;2023-09-19T03:44:20;7.05;;;3.30;;
42760;SDS011;31672;47.638;19.026;2023-09-19T03:49:25;7.13;;;3.53;;
42760;SDS011;31672;47.638;19.026;2023-09-19T03:54:28;4.78;;;3.60;;
42760;SDS011;31672;47.638;19.026;2023-09-19T03:59:32;6.75;;;3.20;;
42760;SDS011;31672;47.638;19.026;2023-09-19T04:04:35;6.45;;;3.08;;
42760;SDS011;31672;47.638;19.026;2023-09-19T04:09:39;5.93;;;3.42;;
42760;SDS011;31672;47.638;19.026;2023-09-19T04:14:43;7.10;;;2.67;;
42760;SDS011;31672;47.638;19.026;2023-09-19T04:19:46;3.72;;;2.00;;
42760;SDS011;31672;47.638;19.026;2023-09-19T04:24:50;3.35;;;1.50;;
42760;SDS011;31672;47.638;19.026;2023-09-19T04:29:54;1.75;;;0.70;;
42760;SDS011;31672;47.638;19.026;2023-09-19T04:35:03;1.88;;;0.80;;
42760;SDS011;31672;47.638;19.026;2023-09-19T04:40:09;2.67;;;0.60;;
42760;SDS011;31672;47.638;19.026;2023-09-19T04:45:21;1.30;;;0.43;;
42760;SDS011;31672;47.638;19.026;2023-09-19T04:50:24;2.83;;;0.93;;
42760;SDS011;31672;47.638;19.026;2023-09-19T04:55:30;1.33;;;0.60;;
42760;SDS011;31672;47.638;19.026;2023-09-19T05:00:36;2.55;;;0.50;;
42760;SDS011;31672;47.638;19.026;2023-09-19T05:05:39;0.60;;;0.40;;
42760;SDS011;31672;47.638;19.026;2023-09-19T05:10:45;0.68;;;0.50;;
42760;SDS011;31672;47.638;19.026;2023-09-19T05:15:49;0.70;;;0.45;;
42760;SDS011;31672;47.638;19.026;2023-09-19T05:20:53;0.40;;;0.30;;
42760;SDS011;31672;47.638;19.026;2023-09-19T05:25:57;1.05;;;0.50;;
42760;SDS011;31672;47.638;19.026;2023-09-19T05:31:02;0.47;;;0.20;;
42760;SDS011;31672;47.638;19.026;2023-09-19T05:36:06;0.30;;;0.30;;
42760;SDS011;31672;47.638;19.026;2023-09-19T05:41:15;0.73;;;0.20;;
42760;SDS011;31672;47.638;19.026;2023-09-19T05:46:19;2.05;;;0.20;;
42760;SDS011;31672;47.638;19.026;2023-09-19T05:51:22;0.30;;;0.22;;
42760;SDS011;31672;47.638;19.026;2023-09-19T05:56:27;0.85;;;0.30;;
42760;SDS011;31672;47.638;19.026;2023-09-19T06:01:30;2.10;;;0.30;;
42760;SDS011;31672;47.638;19.026;2023-09-19T06:06:36;0.20;;;0.20;;
42760;SDS011;31672;47.638;19.026;2023-09-19T06:11:42;0.90;;;0.35;;
42760;SDS011;31672;47.638;19.026;2023-09-19T06:16:46;0.80;;;0.30;;
42760;SDS011;31672;47.638;19.026;2023-09-19T06:21:50;1.00;;;0.45;;
42760;SDS011;31672;47.638;19.026;2023-09-19T06:26:55;1.15;;;0.40;;
42760;SDS011;31672;47.638;19.026;2023-09-19T06:31:58;0.35;;;0.17;;
42760;SDS011;31672;47.638;19.026;2023-09-19T06:37:02;1.05;;;0.40;;
42760;SDS011;31672;47.638;19.026;2023-09-19T06:42:06;0.50;;;0.20;;
42760;SDS011;31672;47.638;19.026;2023-09-19T06:47:11;1.45;;;0.30;;
42760;SDS011;31672;47.638;19.026;2023-09-19T06:52:15;0.30;;;0.20;;
42760;SDS011;31672;47.638;19.026;2023-09-19T06:57:18;0.55;;;0.30;;
42760;SDS011;31672;47.638;19.026;2023-09-19T07:02:23;2.30;;;0.10;;
42760;SDS011;31672;47.638;19.026;2023-09-19T07:07:27;0.55;;;0.20;;
42760;SDS011;31672;47.638;19.026;2023-09-19T07:12:32;0.50;;;0.20;;
42760;SDS011;31672;47.638;19.026;2023-09-19T07:17:35;0.20;;;0.10;;
42760;SDS011;31672;47.638;19.026;2023-09-19T07:22:39;0.20;;;0.10;;
42760;SDS011;31672;47.638;19.026;2023-09-19T07:27:45;0.45;;;0.22;;
42760;SDS011;31672;47.638;19.026;2023-09-19T07:32:48;0.28;;;0.10;;
42760;SDS011;31672;47.638;19.026;2023-09-19T07:37:52;0.40;;;0.20;;
42760;SDS011;31672;47.638;19.026;2023-09-19T07:42:56;0.52;;;0.20;;
42760;SDS011;31672;47.638;19.026;2023-09-19T07:48:04;0.73;;;0.30;;
42760;SDS011;31672;47.638;19.026;2023-09-19T07:53:16;0.40;;;0.20;;
42760;SDS011;31672;47.638;19.026;2023-09-19T07:58:20;0.75;;;0.30;;
42760;SDS011;31672;47.638;19.026;2023-09-19T08:03:25;0.30;;;0.30;;
42760;SDS011;31672;47.638;19.026;2023-09-19T08:08:30;0.40;;;0.30;;
42760;SDS011;31672;47.638;19.026;2023-09-19T08:13:35;0.93;;;0.45;;
42760;SDS011;31672;47.638;19.026;2023-09-19T08:18:39;1.13;;;0.40;;
42760;SDS011;31672;47.638;19.026;2023-09-19T08:23:43;0.50;;;0.22;;
42760;SDS011;31672;47.638;19.026;2023-09-19T08:28:47;0.75;;;0.40;;
42760;SDS011;31672;47.638;19.026;2023-09-19T08:33:51;0.80;;;0.50;;
42760;SDS011;31672;47.638;19.026;2023-09-19T08:38:56;1.52;;;0.70;;
42760;SDS011;31672;47.638;19.026;2023-09-19T08:44:00;0.93;;;0.40;;
42760;SDS011;31672;47.638;19.026;2023-09-19T08:54:35;0.55;;;0.32;;
42760;SDS011;31672;47.638;19.026;2023-09-19T08:59:42;1.17;;;0.40;;
42760;SDS011;31672;47.638;19.026;2023-09-19T09:04:48;0.68;;;0.40;;
42760;SDS011;31672;47.638;19.026;2023-09-19T09:09:53;1.00;;;0.43;;
42760;SDS011;31672;47.638;19.026;2023-09-19T09:14:57;0.77;;;0.40;;
42760;SDS011;31672;47.638;19.026;2023-09-19T09:20:01;0.88;;;0.50;;
42760;SDS011;31672;47.638;19.026;2023-09-19T09:25:05;0.90;;;0.50;;
42760;SDS011;31672;47.638;19.026;2023-09-19T09:30:10;1.70;;;0.50;;
42760;SDS011;31672;47.638;19.026;2023-09-19T09:41:02;3.15;;;0.38;;
42760;SDS011;31672;47.638;19.026;2023-09-19T09:46:10;0.95;;;0.60;;
42760;SDS011;31672;47.638;19.026;2023-09-19T09:51:29;1.08;;;0.52;;
42760;SDS011;31672;47.638;19.026;2023-09-19T09:56:33;2.25;;;0.50;;
42760;SDS011;31672;47.638;19.026;2023-09-19T10:01:47;1.35;;;0.93;;
42760;SDS011;31672;47.638;19.026;2023-09-19T10:06:52;0.90;;;0.52;;
42760;SDS011;31672;47.638;19.026;2023-09-19T10:12:02;1.10;;;0.80;;
42760;SDS011;31672;47.638;19.026;2023-09-19T10:17:12;2.33;;;1.20;;
42760;SDS011;31672;47.638;19.026;2023-09-19T10:22:23;2.13;;;1.00;;
42760;SDS011;31672;47.638;19.026;2023-09-19T10:27:29;1.83;;;1.40;;
42760;SDS011;31672;47.638;19.026;2023-09-19T10:32:40;2.28;;;1.20;;
42760;SDS011;31672;47.638;19.026;2023-09-19T10:37:45;1.98;;;1.40;;
42760;SDS011;31672;47.638;19.026;2023-09-19T10:42:53;2.50;;;1.30;;
42760;SDS011;31672;47.638;19.026;2023-09-19T10:48:02;1.60;;;1.30;;
42760;SDS011;31672;47.638;19.026;2023-09-19T10:53:10;1.30;;;1.00;;
42760;SDS011;31672;47.638;19.026;2023-09-19T10:58:24;1.60;;;1.00;;
42760;SDS011;31672;47.638;19.026;2023-09-19T11:03:41;1.08;;;0.88;;
42760;SDS011;31672;47.638;19.026;2023-09-19T11:20:14;1.20;;;0.75;;
42760;SDS011;31672;47.638;19.026;2023-09-19T11:30:38;0.55;;;0.40;;
42760;SDS011;31672;47.638;19.026;2023-09-19T11:46:25;1.13;;;0.40;;
42760;SDS011;31672;47.638;19.026;2023-09-19T11:51:37;0.63;;;0.38;;
42760;SDS011;31672;47.638;19.026;2023-09-19T11:56:48;0.80;;;0.30;;
42760;SDS011;31672;47.638;19.026;2023-09-19T12:01:54;0.73;;;0.60;;
42760;SDS011;31672;47.638;19.026;2023-09-19T12:07:12;0.52;;;0.32;;
42760;SDS011;31672;47.638;19.026;2023-09-19T12:12:26;1.08;;;0.60;;
42760;SDS011;31672;47.638;19.026;2023-09-19T12:17:36;1.43;;;0.57;;
42760;SDS011;31672;47.638;19.026;2023-09-19T12:22:46;1.05;;;0.60;;
42760;SDS011;31672;47.638;19.026;2023-09-19T12:27:50;0.77;;;0.57;;
42760;SDS011;31672;47.638;19.026;2023-09-19T12:32:58;0.98;;;0.77;;
42760;SDS011;31672;47.638;19.026;2023-09-19T12:38:03;2.33;;;0.60;;
42760;SDS011;31672;47.638;19.026;2023-09-19T12:43:09;1.20;;;0.75;;
42760;SDS011;31672;47.638;19.026;2023-09-19T12:48:21;1.85;;;0.77;;
42760;SDS011;31672;47.638;19.026;2023-09-19T12:53:37;1.00;;;0.70;;
42760;SDS011;31672;47.638;19.026;2023-09-19T12:58:56;0.45;;;0.45;;
42760;SDS011;31672;47.638;19.026;2023-09-19T13:09:35;0.80;;;0.55;;
42760;SDS011;31672;47.638;19.026;2023-09-19T13:14:41;0.90;;;0.60;;
42760;SDS011;31672;47.638;19.026;2023-09-19T13:19:50;1.05;;;0.85;;
42760;SDS011;31672;47.638;19.026;2023-09-19T13:25:00;4.25;;;0.90;;
42760;SDS011;31672;47.638;19.026;2023-09-19T13:30:04;0.77;;;0.57;;
42760;SDS011;31672;47.638;19.026;2023-09-19T13:35:09;1.27;;;0.50;;
42760;SDS011;31672;47.638;19.026;2023-09-19T13:40:13;3.08;;;0.82;;
42760;SDS011;31672;47.638;19.026;2023-09-19T13:45:18;0.88;;;0.50;;
42760;SDS011;31672;47.638;19.026;2023-09-19T13:50:24;2.00;;;0.73;;
42760;SDS011;31672;47.638;19.026;2023-09-19T13:55:29;0.80;;;0.63;;
42760;SDS011;31672;47.638;19.026;2023-09-19T14:00:32;0.75;;;0.47;;
42760;SDS011;31672;47.638;19.026;2023-09-19T14:05:39;1.15;;;0.60;;
42760;SDS011;31672;47.638;19.026;2023-09-19T14:10:45;0.70;;;0.70;;
42760;SDS011;31672;47.638;19.026;2023-09-19T14:15:48;1.75;;;0.82;;
42760;SDS011;31672;47.638;19.026;2023-09-19T14:20:52;1.52;;;0.60;;
42760;SDS011;31672;47.638;19.026;2023-09-19T14:25:56;0.95;;;0.60;;
42760;SDS011;31672;47.638;19.026;2023-09-19T14:31:04;1.27;;;0.60;;
42760;SDS011;31672;47.638;19.026;2023-09-19T14:36:12;1.85;;;0.80;;
42760;SDS011;31672;47.638;19.026;2023-09-19T14:41:16;1.10;;;0.60;;
42760;SDS011;31672;47.638;19.026;2023-09-19T14:46:20;0.95;;;0.60;;
42760;SDS011;31672;47.638;19.026;2023-09-19T14:51:24;1.23;;;0.40;;
42760;SDS011;31672;47.638;19.026;2023-09-19T14:56:28;0.88;;;0.50;;
42760;SDS011;31672;47.638;19.026;2023-09-19T15:01:33;0.73;;;0.20;;
42760;SDS011;31672;47.638;19.026;2023-09-19T15:06:38;0.82;;;0.50;;
42760;SDS011;31672;47.638;19.026;2023-09-19T15:11:41;1.17;;;0.32;;
42760;SDS011;31672;47.638;19.026;2023-09-19T15:16:45;1.15;;;0.40;;
42760;SDS011;31672;47.638;19.026;2023-09-19T15:21:49;2.35;;;0.52;;
42760;SDS011;31672;47.638;19.026;2023-09-19T15:26:53;0.57;;;0.30;;
42760;SDS011;31672;47.638;19.026;2023-09-19T15:31:58;0.50;;;0.30;;
42760;SDS011;31672;47.638;19.026;2023-09-19T15:37:05;1.15;;;0.50;;
42760;SDS011;31672;47.638;19.026;2023-09-19T15:42:08;1.48;;;0.52;;
42760;SDS011;31672;47.638;19.026;2023-09-19T15:47:12;0.73;;;0.50;;
42760;SDS011;31672;47.638;19.026;2023-09-19T15:52:17;0.93;;;0.40;;
42760;SDS011;31672;47.638;19.026;2023-09-19T15:57:21;2.13;;;0.45;;
42760;SDS011;31672;47.638;19.026;2023-09-19T16:02:27;0.75;;;0.40;;
42760;SDS011;31672;47.638;19.026;2023-09-19T16:07:31;1.55;;;0.40;;
42760;SDS011;31672;47.638;19.026;2023-09-19T16:12:42;0.57;;;0.30;;
42760;SDS011;31672;47.638;19.026;2023-09-19T16:17:52;1.10;;;0.35;;
42760;SDS011;31672;47.638;19.026;2023-09-19T16:22:56;0.65;;;0.40;;
42760;SDS011;31672;47.638;19.026;2023-09-19T16:28:04;0.65;;;0.30;;
42760;SDS011;31672;47.638;19.026;2023-09-19T16:33:14;0.68;;;0.40;;
42760;SDS011;31672;47.638;19.026;2023-09-19T16:38:17;0.80;;;0.50;;
42760;SDS011;31672;47.638;19.026;2023-09-19T16:43:23;0.43;;;0.35;;
42760;SDS011;31672;47.638;19.026;2023-09-19T16:53:53;0.77;;;0.40;;
42760;SDS011;31672;47.638;19.026;2023-09-19T16:58:57;1.83;;;0.55;;
42760;SDS011;31672;47.638;19.026;2023-09-19T17:04:04;1.05;;;0.63;;
42760;SDS011;31672;47.638;19.026;2023-09-19T17:09:10;0.85;;;0.65;;
42760;SDS011;31672;47.638;19.026;2023-09-19T17:14:15;0.80;;;0.52;;
42760;SDS011;31672;47.638;19.026;2023-09-19T17:19:18;0.93;;;0.52;;
42760;SDS011;31672;47.638;19.026;2023-09-19T17:24:25;1.15;;;0.70;;
42760;SDS011;31672;47.638;19.026;2023-09-19T17:29:28;1.40;;;0.60;;
42760;SDS011;31672;47.638;19.026;2023-09-19T17:34:32;1.95;;;0.52;;
42760;SDS011;31672;47.638;19.026;2023-09-19T17:39:36;0.93;;;0.68;;
42760;SDS011;31672;47.638;19.026;2023-09-19T17:44:40;1.60;;;0.55;;
42760;SDS011;31672;47.638;19.026;2023-09-19T17:49:43;2.75;;;0.52;;
42760;SDS011;31672;47.638;19.026;2023-09-19T17:54:47;1.35;;;0.60;;
42760;SDS011;31672;47.638;19.026;2023-09-19T17:59:54;1.52;;;0.75;;
42760;SDS011;31672;47.638;19.026;2023-09-19T18:04:59;1.10;;;0.60;;
42760;SDS011;31672;47.638;19.026;2023-09-19T18:10:04;0.95;;;0.50;;
42760;SDS011;31672;47.638;19.026;2023-09-19T18:15:10;1.25;;;0.73;;
42760;SDS011;31672;47.638;19.026;2023-09-19T18:20:15;2.70;;;0.77;;
42760;SDS011;31672;47.638;19.026;2023-09-19T18:25:24;1.88;;;0.60;;
42760;SDS011;31672;47.638;19.026;2023-09-19T18:30:31;2.20;;;0.88;;
42760;SDS011;31672;47.638;19.026;2023-09-19T18:35:48;1.27;;;0.80;;
42760;SDS011;31672;47.638;19.026;2023-09-19T18:40:54;2.78;;;0.80;;
42760;SDS011;31672;47.638;19.026;2023-09-19T18:46:07;0.98;;;0.50;;
42760;SDS011;31672;47.638;19.026;2023-09-19T18:51:18;0.80;;;0.50;;
42760;SDS011;31672;47.638;19.026;2023-09-19T18:56:24;1.38;;;0.70;;
42760;SDS011;31672;47.638;19.026;2023-09-19T19:01:28;3.03;;;0.82;;
42760;SDS011;31672;47.638;19.026;2023-09-19T19:06:33;1.65;;;0.80;;
42760;SDS011;31672;47.638;19.026;2023-09-19T19:11:37;1.15;;;0.65;;
42760;SDS011;31672;47.638;19.026;2023-09-19T19:16:43;0.90;;;0.52;;
42760;SDS011;31672;47.638;19.026;2023-09-19T19:21:46;2.05;;;0.77;;
42760;SDS011;31672;47.638;19.026;2023-09-19T19:26:50;0.90;;;0.80;;
42760;SDS011;31672;47.638;19.026;2023-09-19T19:31:55;1.30;;;0.63;;
42760;SDS011;31672;47.638;19.026;2023-09-19T19:36:59;1.17;;;0.70;;
42760;SDS011;31672;47.638;19.026;2023-09-19T19:42:03;0.82;;;0.60;;
42760;SDS011;31672;47.638;19.026;2023-09-19T19:47:08;1.48;;;0.77;;
42760;SDS011;31672;47.638;19.026;2023-09-19T19:52:12;2.22;;;0.80;;
42760;SDS011;31672;47.638;19.026;2023-09-19T19:57:16;1.23;;;0.80;;
42760;SDS011;31672;47.638;19.026;2023-09-19T20:02:21;1.80;;;0.95;;
42760;SDS011;31672;47.638;19.026;2023-09-19T20:07:25;1.60;;;0.90;;
42760;SDS011;31672;47.638;19.026;2023-09-19T20:12:30;1.25;;;0.75;;
42760;SDS011;31672;47.638;19.026;2023-09-19T20:17:37;2.47;;;1.10;;
42760;SDS011;31672;47.638;19.026;2023-09-19T20:22:41;2.72;;;0.85;;
42760;SDS011;31672;47.638;19.026;2023-09-19T20:27:45;2.17;;;0.90;;
42760;SDS011;31672;47.638;19.026;2023-09-19T20:32:50;2.05;;;1.00;;
42760;SDS011;31672;47.638;19.026;2023-09-19T20:37:55;1.42;;;0.82;;
42760;SDS011;31672;47.638;19.026;2023-09-19T20:43:04;1.38;;;0.95;;
42760;SDS011;31672;47.638;19.026;2023-09-19T20:48:09;2.13;;;1.17;;
42760;SDS011;31672;47.638;19.026;2023-09-19T20:53:16;3.10;;;0.80;;
42760;SDS011;31672;47.638;19.026;2023-09-19T20:58:20;4.13;;;1.00;;
42760;SDS011;31672;47.638;19.026;2023-09-19T21:03:25;1.58;;;0.70;;
42760;SDS011;31672;47.638;19.026;2023-09-19T21:08:30;1.33;;;0.80;;
42760;SDS011;31672;47.638;19.026;2023-09-19T21:13:35;1.02;;;0.60;;
42760;SDS011;31672;47.638;19.026;2023-09-19T21:18:39;1.20;;;0.65;;
42760;SDS011;31672;47.638;19.026;2023-09-19T21:23:44;1.50;;;0.70;;
42760;SDS011;31672;47.638;19.026;2023-09-19T21:28:48;1.10;;;0.70;;
42760;SDS011;31672;47.638;19.026;2023-09-19T21:33:53;1.48;;;0.73;;
42760;SDS011;31672;47.638;19.026;2023-09-19T21:38:57;0.90;;;0.60;;
42760;SDS011;31672;47.638;19.026;2023-09-19T21:44:05;1.45;;;0.73;;
42760;SDS011;31672;47.638;19.026;2023-09-19T21:49:09;2.45;;;0.70;;
42760;SDS011;31672;47.638;19.026;2023-09-19T21:54:15;2.60;;;0.90;;
42760;SDS011;31672;47.638;19.026;2023-09-19T21:59:23;1.33;;;0.93;;
42760;SDS011;31672;47.638;19.026;2023-09-19T22:04:31;1.20;;;0.73;;
42760;SDS011;31672;47.638;19.026;2023-09-19T22:09:38;0.80;;;0.65;;
42760;SDS011;31672;47.638;19.026;2023-09-19T22:14:45;0.73;;;0.60;;
42760;SDS011;31672;47.638;19.026;2023-09-19T22:19:48;1.50;;;0.93;;
42760;SDS011;31672;47.638;19.026;2023-09-19T22:24:56;1.38;;;0.73;;
42760;SDS011;31672;47.638;19.026;2023-09-19T22:30:00;1.60;;;0.88;;
42760;SDS011;31672;47.638;19.026;2023-09-19T22:35:04;2.15;;;0.90;;
42760;SDS011;31672;47.638;19.026;2023-09-19T22:40:10;2.25;;;1.17;;
42760;SDS011;31672;47.638;19.026;2023-09-19T22:45:30;1.42;;;0.90;;
42760;SDS011;31672;47.638;19.026;2023-09-19T22:50:34;1.65;;;1.02;;
42760;SDS011;31672;47.638;19.026;2023-09-19T22:55:40;1.23;;;0.82;;
42760;SDS011;31672;47.638;19.026;2023-09-19T23:00:44;1.95;;;1.00;;
42760;SDS011;31672;47.638;19.026;2023-09-19T23:05:49;3.45;;;0.90;;
42760;SDS011;31672;47.638;19.026;2023-09-19T23:10:54;1.17;;;0.73;;
42760;SDS011;31672;47.638;19.026;2023-09-19T23:16:01;1.50;;;1.08;;
42760;SDS011;31672;47.638;19.026;2023-09-19T23:21:05;1.48;;;0.77;;
42760;SDS011;31672;47.638;19.026;2023-09-19T23:26:19;4.13;;;1.00;;
42760;SDS011;31672;47.638;19.026;2023-09-19T23:31:23;1.27;;;0.63;;
42760;SDS011;31672;47.638;19.026;2023-09-19T23:36:28;1.20;;;0.77;;
42760;SDS011;31672;47.638;19.026;2023-09-19T23:41:32;1.42;;;0.80;;
42760;SDS011;31672;47.638;19.026;2023-09-19T23:46:36;1.20;;;0.60;;
42760;SDS011;31672;47.638;19.026;2023-09-19T23:51:44;0.88;;;0.70;;
42760;SDS011;31672;47.638;19.026;2023-09-19T23:56:51;1.48;;;0.70;;
